createdAt,value
2023-02-23T00:02:25.493Z,7.88
2023-02-23T00:04:52.808Z,7.60
2023-02-23T00:07:22.222Z,7.53
2023-02-23T00:09:50.900Z,7.88
2023-02-23T00:12:18.290Z,7.57
2023-02-23T00:14:47.808Z,7.38
2023-02-23T00:17:17.534Z,7.40
2023-02-23T00:19:49.238Z,7.50
2023-02-23T00:24:43.597Z,6.95
2023-02-23T00:27:17.514Z,6.90
2023-02-23T00:29:49.654Z,7.30
2023-02-23T00:32:20.744Z,6.90
2023-02-23T00:34:51.308Z,7.57
2023-02-23T00:37:23.038Z,7.32
2023-02-23T00:42:23.683Z,7.30
2023-02-23T00:44:51.049Z,7.63
2023-02-23T00:47:25.388Z,7.50
2023-02-23T00:49:52.783Z,7.63
2023-02-23T00:52:20.174Z,7.40
2023-02-23T00:54:49.867Z,7.75
2023-02-23T00:57:17.103Z,8.20
2023-02-23T00:59:44.365Z,7.30
2023-02-23T01:02:14.066Z,7.22
2023-02-23T01:04:43.463Z,7.85
2023-02-23T01:07:12.975Z,7.18
2023-02-23T01:09:43.670Z,7.47
2023-02-23T01:12:10.957Z,8.63
2023-02-23T01:14:38.234Z,7.68
2023-02-23T01:17:05.618Z,7.78
2023-02-23T01:19:35.230Z,8.23
2023-02-23T01:22:04.916Z,8.70
2023-02-23T01:24:32.226Z,7.85
2023-02-23T01:26:59.483Z,7.68
2023-02-23T01:29:26.783Z,7.30
2023-02-23T01:31:56.685Z,7.53
2023-02-23T01:34:24.061Z,7.55
2023-02-23T01:36:55.788Z,8.10
2023-02-23T01:41:52.555Z,8.05
2023-02-23T01:44:20.054Z,8.05
2023-02-23T01:46:50.596Z,7.60
2023-02-23T01:49:27.398Z,8.15
2023-02-23T01:52:11.331Z,7.65
2023-02-23T01:54:54.701Z,7.53
2023-02-23T01:57:25.051Z,7.55
2023-02-23T01:59:53.718Z,8.00
2023-02-23T02:02:24.478Z,8.00
2023-02-23T02:04:52.784Z,8.32
2023-02-23T02:07:27.754Z,8.00
2023-02-23T02:10:17.557Z,8.43
2023-02-23T02:12:54.304Z,7.60
2023-02-23T02:15:26.093Z,8.43
2023-02-23T02:20:55.075Z,7.47
2023-02-23T02:23:37.190Z,9.82
2023-02-23T02:26:23.056Z,9.05
2023-02-23T02:28:59.948Z,8.57
2023-02-23T02:31:58.709Z,9.40
2023-02-23T02:34:54.292Z,8.30
2023-02-23T02:37:21.467Z,9.00
2023-02-23T02:40:16.449Z,10.35
2023-02-23T02:43:10.294Z,9.15
2023-02-23T02:45:59.546Z,8.57
2023-02-23T02:48:26.850Z,8.82
2023-02-23T02:51:01.234Z,8.57
2023-02-23T02:53:45.591Z,9.43
2023-02-23T02:56:19.917Z,8.52
2023-02-23T02:58:50.678Z,8.25
2023-02-23T03:01:37.838Z,7.78
2023-02-23T03:04:43.065Z,7.35
2023-02-23T03:07:39.838Z,8.10
2023-02-23T03:10:33.475Z,7.10
2023-02-23T03:13:35.164Z,7.85
2023-02-23T03:16:33.632Z,7.93
2023-02-23T03:19:45.390Z,7.03
2023-02-23T03:22:42.694Z,7.47
2023-02-23T03:25:42.606Z,7.80
2023-02-23T03:28:43.943Z,7.25
2023-02-23T03:31:35.186Z,8.00
2023-02-23T03:34:54.935Z,7.65
2023-02-23T03:37:50.149Z,7.47
2023-02-23T03:40:44.885Z,7.38
2023-02-23T03:43:36.601Z,7.90
2023-02-23T03:46:25.500Z,7.47
2023-02-23T03:49:14.504Z,7.40
2023-02-23T03:52:06.293Z,7.80
2023-02-23T03:54:59.519Z,7.90
2023-02-23T03:57:48.121Z,7.88
2023-02-23T04:00:42.740Z,7.80
2023-02-23T04:03:34.674Z,7.88
2023-02-23T04:06:25.902Z,7.35
2023-02-23T04:09:14.920Z,7.93
2023-02-23T04:12:26.709Z,8.40
2023-02-23T04:15:10.583Z,8.70
2023-02-23T04:17:38.261Z,7.75
2023-02-23T04:20:07.092Z,8.35
2023-02-23T04:22:36.803Z,8.00
2023-02-23T04:25:06.152Z,8.07
2023-02-23T04:27:35.760Z,7.85
2023-02-23T04:30:03.850Z,7.03
2023-02-23T04:32:31.190Z,8.30
2023-02-23T04:34:58.597Z,7.70
2023-02-23T04:37:25.875Z,7.82
2023-02-23T04:39:53.153Z,8.40
2023-02-23T04:42:20.458Z,8.13
2023-02-23T04:44:50.250Z,7.72
2023-02-23T04:47:17.714Z,8.45
2023-02-23T04:49:45.017Z,8.00
2023-02-23T04:52:12.483Z,7.90
2023-02-23T04:54:43.388Z,7.90
2023-02-23T04:57:10.692Z,8.60
2023-02-23T04:59:38.204Z,8.63
2023-02-23T05:02:06.291Z,8.38
2023-02-23T05:04:36.536Z,8.55
2023-02-23T05:07:04.648Z,8.48
2023-02-23T05:09:34.988Z,8.35
2023-02-23T05:12:05.028Z,8.77
2023-02-23T05:14:32.682Z,7.55
2023-02-23T05:17:02.368Z,8.15
2023-02-23T05:19:29.779Z,7.82
2023-02-23T05:21:57.029Z,8.15
2023-02-23T05:24:24.284Z,8.43
2023-02-23T05:26:51.590Z,8.23
2023-02-23T05:29:21.236Z,8.13
2023-02-23T05:31:48.654Z,8.70
2023-02-23T05:34:18.642Z,8.68
2023-02-23T05:36:48.047Z,8.38
2023-02-23T05:39:15.327Z,9.48
2023-02-23T05:41:45.111Z,8.07
2023-02-23T05:44:12.626Z,9.20
2023-02-23T05:46:42.144Z,8.80
2023-02-23T05:49:13.950Z,8.65
2023-02-23T05:54:09.330Z,8.52
2023-02-23T05:56:36.657Z,8.55
2023-02-23T05:59:06.159Z,9.13
2023-02-23T06:01:36.294Z,8.70
2023-02-23T06:04:06.315Z,8.73
2023-02-23T06:06:33.725Z,7.82
2023-02-23T06:09:01.741Z,8.27
2023-02-23T06:11:29.175Z,9.23
2023-02-23T06:13:59.478Z,9.70
2023-02-23T06:16:27.461Z,9.82
2023-02-23T06:18:57.038Z,10.30
2023-02-23T06:21:25.145Z,10.02
2023-02-23T06:23:53.430Z,9.40
2023-02-23T06:26:25.789Z,9.35
2023-02-23T06:28:53.034Z,9.57
2023-02-23T06:31:20.561Z,9.43
2023-02-23T06:33:50.931Z,8.82
2023-02-23T06:36:18.679Z,9.85
2023-02-23T06:38:46.701Z,9.68
2023-02-23T06:41:14.005Z,9.25
2023-02-23T06:43:41.307Z,9.63
2023-02-23T06:46:08.688Z,8.90
2023-02-23T06:48:36.232Z,9.25
2023-02-23T06:51:05.710Z,9.57
2023-02-23T06:53:33.659Z,10.88
2023-02-23T06:56:01.541Z,9.90
2023-02-23T06:58:29.081Z,9.95
2023-02-23T07:01:00.342Z,9.88
2023-02-23T07:03:27.572Z,9.10
2023-02-23T07:05:57.402Z,9.40
2023-02-23T07:08:24.682Z,9.85
2023-02-23T07:10:54.418Z,9.77
2023-02-23T07:13:22.196Z,9.60
2023-02-23T07:15:51.856Z,9.23
2023-02-23T07:18:19.103Z,9.40
2023-02-23T07:20:51.905Z,9.07
2023-02-23T07:23:19.374Z,9.57
2023-02-23T07:25:46.749Z,8.75
2023-02-23T07:28:14.657Z,9.57
2023-02-23T07:30:41.938Z,10.30
2023-02-23T07:33:09.334Z,9.35
2023-02-23T07:35:38.829Z,9.68
2023-02-23T07:38:08.272Z,9.40
2023-02-23T07:40:35.632Z,9.55
2023-02-23T07:43:02.981Z,9.82
2023-02-23T07:45:30.300Z,9.82
2023-02-23T07:47:57.540Z,9.57
2023-02-23T07:50:27.142Z,9.95
2023-02-23T07:52:54.376Z,10.57
2023-02-23T07:55:22.543Z,10.18
2023-02-23T07:57:52.348Z,11.35
2023-02-23T08:00:22.218Z,10.80
2023-02-23T08:02:49.520Z,12.80
2023-02-23T08:05:17.149Z,12.05
2023-02-23T08:07:46.670Z,12.55
2023-02-23T08:10:13.922Z,11.63
2023-02-23T08:12:41.259Z,12.73
2023-02-23T08:15:09.455Z,12.30
2023-02-23T08:17:39.859Z,11.73
2023-02-23T08:20:08.486Z,11.90
2023-02-23T08:22:49.317Z,11.82
2023-02-23T08:25:17.961Z,12.45
2023-02-23T08:27:46.036Z,10.80
2023-02-23T08:30:14.369Z,11.48
2023-02-23T08:32:41.724Z,13.57
2023-02-23T08:35:12.614Z,11.60
2023-02-23T08:37:45.402Z,12.17
2023-02-23T08:40:15.538Z,11.50
2023-02-23T08:42:43.061Z,12.07
2023-02-23T08:45:11.562Z,12.32
2023-02-23T08:47:38.863Z,12.20
2023-02-23T08:50:06.632Z,12.30
2023-02-23T08:52:34.147Z,12.73
2023-02-23T08:55:01.377Z,11.88
2023-02-23T08:57:36.050Z,12.30
2023-02-23T09:00:11.867Z,13.00
2023-02-23T09:02:41.776Z,13.98
2023-02-23T09:05:09.818Z,13.18
2023-02-23T09:07:39.008Z,13.63
2023-02-23T09:10:06.999Z,12.95
2023-02-23T09:12:36.605Z,13.50
2023-02-23T09:15:04.146Z,13.75
2023-02-23T09:17:33.904Z,13.20
2023-02-23T09:20:02.136Z,13.45
2023-02-23T09:22:31.969Z,13.93
2023-02-23T09:24:59.401Z,13.25
2023-02-23T09:27:26.729Z,13.90
2023-02-23T09:29:53.997Z,13.80
2023-02-23T09:32:21.525Z,14.45
2023-02-23T09:34:52.603Z,14.15
2023-02-23T09:37:22.392Z,14.32
2023-02-23T09:39:49.646Z,13.80
2023-02-23T09:42:45.669Z,14.60
2023-02-23T09:45:21.321Z,14.23
2023-02-23T09:48:00.736Z,14.70
2023-02-23T09:50:32.344Z,14.82
2023-02-23T09:53:15.472Z,13.60
2023-02-23T09:55:47.689Z,14.80
2023-02-23T09:58:22.367Z,15.15
2023-02-23T10:01:12.040Z,15.20
2023-02-23T10:03:54.086Z,14.70
2023-02-23T10:06:21.997Z,14.43
2023-02-23T10:09:11.383Z,13.98
2023-02-23T10:12:03.154Z,16.05
2023-02-23T10:14:48.169Z,15.65
2023-02-23T10:17:26.404Z,15.45
2023-02-23T10:20:10.872Z,15.93
2023-02-23T10:22:41.620Z,15.52
2023-02-23T10:25:16.032Z,14.40
2023-02-23T10:27:49.095Z,15.55
2023-02-23T10:30:24.061Z,15.38
2023-02-23T10:33:13.304Z,15.60
2023-02-23T10:35:40.572Z,16.13
2023-02-23T10:38:14.811Z,15.75
2023-02-23T10:40:46.828Z,15.95
2023-02-23T10:43:15.090Z,15.07
2023-02-23T10:45:56.245Z,15.40
2023-02-23T10:48:35.938Z,15.82
2023-02-23T10:51:11.885Z,15.68
2023-02-23T10:53:41.685Z,16.55
2023-02-23T10:56:11.034Z,14.93
2023-02-23T10:58:52.384Z,16.95
2023-02-23T11:02:00.769Z,16.75
2023-02-23T11:04:35.044Z,16.73
2023-02-23T11:07:13.005Z,17.40
2023-02-23T11:09:47.221Z,16.33
2023-02-23T11:12:21.741Z,18.02
2023-02-23T11:14:51.689Z,17.02
2023-02-23T11:17:30.202Z,17.45
2023-02-23T11:20:14.353Z,20.42
2023-02-23T11:22:42.421Z,18.35
2023-02-23T11:25:31.768Z,25.77
2023-02-23T11:27:59.859Z,19.65
2023-02-23T11:30:37.158Z,23.00
2023-02-23T11:33:11.880Z,20.30
2023-02-23T11:35:43.903Z,18.38
2023-02-23T11:38:27.085Z,18.05
2023-02-23T11:41:24.928Z,18.42
2023-02-23T11:43:58.164Z,16.65
2023-02-23T11:46:28.110Z,17.10
2023-02-23T11:49:04.327Z,17.15
2023-02-23T11:51:45.896Z,18.08
2023-02-23T11:54:27.939Z,17.48
2023-02-23T11:56:58.612Z,16.42
2023-02-23T11:59:32.629Z,17.27
2023-02-23T12:02:04.961Z,17.33
2023-02-23T12:04:40.970Z,17.98
2023-02-23T12:07:25.146Z,16.67
2023-02-23T12:10:12.239Z,18.48
2023-02-23T12:12:58.113Z,17.65
2023-02-23T12:15:32.269Z,17.80
2023-02-23T12:18:25.281Z,17.95
2023-02-23T12:20:57.926Z,18.00
2023-02-23T12:23:29.198Z,18.20
2023-02-23T12:26:12.659Z,17.77
2023-02-23T12:28:45.772Z,17.58
2023-02-23T12:31:26.131Z,19.42
2023-02-23T12:34:09.780Z,18.38
2023-02-23T12:36:49.813Z,18.30
2023-02-23T12:39:35.950Z,18.33
2023-02-23T12:42:06.232Z,19.08
2023-02-23T12:44:52.433Z,18.27
2023-02-23T12:47:49.269Z,19.17
2023-02-23T12:50:25.522Z,18.38
2023-02-23T12:53:08.191Z,19.00
2023-02-23T12:56:05.910Z,19.13
2023-02-23T12:58:38.968Z,19.08
2023-02-23T13:01:14.657Z,20.08
2023-02-23T13:04:29.501Z,18.92
2023-02-23T13:07:34.457Z,18.58
2023-02-23T13:10:16.242Z,17.25
2023-02-23T13:16:00.442Z,17.67
2023-02-23T13:18:37.065Z,18.27
2023-02-23T13:21:34.813Z,18.92
2023-02-23T13:24:07.167Z,18.02
2023-02-23T13:27:03.593Z,18.63
2023-02-23T13:29:37.643Z,18.20
2023-02-23T13:32:11.317Z,18.95
2023-02-23T13:34:58.566Z,18.67
2023-02-23T13:37:32.219Z,18.02
2023-02-23T13:40:24.224Z,19.65
2023-02-23T13:43:17.944Z,19.90
2023-02-23T13:45:51.912Z,18.45
2023-02-23T13:48:55.293Z,18.55
2023-02-23T13:52:05.983Z,18.00
2023-02-23T13:54:34.615Z,19.00
2023-02-23T13:57:05.763Z,19.55
2023-02-23T13:59:43.882Z,19.60
2023-02-23T14:02:39.147Z,19.38
2023-02-23T14:05:20.450Z,19.80
2023-02-23T14:07:53.086Z,18.65
2023-02-23T14:10:24.888Z,18.98
2023-02-23T14:13:13.867Z,20.25
2023-02-23T14:15:43.000Z,18.77
2023-02-23T14:18:19.440Z,20.10
2023-02-23T14:20:54.153Z,19.88
2023-02-23T14:23:23.521Z,20.15
2023-02-23T14:26:09.861Z,18.55
2023-02-23T14:28:50.309Z,19.25
2023-02-23T14:31:22.596Z,19.80
2023-02-23T14:33:59.244Z,19.90
2023-02-23T14:36:29.114Z,19.38
2023-02-23T14:39:00.381Z,19.23
2023-02-23T14:41:50.918Z,19.27
2023-02-23T14:44:30.194Z,18.95
2023-02-23T14:47:05.997Z,19.38
2023-02-23T14:49:38.924Z,19.83
2023-02-23T14:52:25.752Z,20.40
2023-02-23T14:55:18.000Z,20.55
2023-02-23T14:57:48.509Z,19.58
2023-02-23T15:00:24.046Z,20.02
2023-02-23T15:03:02.617Z,18.83
2023-02-23T15:05:55.198Z,20.08
2023-02-23T15:08:26.118Z,19.92
2023-02-23T15:11:01.641Z,18.80
2023-02-23T15:13:39.808Z,19.52
2023-02-23T15:16:13.823Z,21.25
2023-02-23T15:18:44.184Z,21.98
2023-02-23T15:21:16.288Z,20.27
2023-02-23T15:23:53.145Z,19.58
2023-02-23T15:26:32.078Z,20.45
2023-02-23T15:29:13.655Z,21.10
2023-02-23T15:31:55.274Z,19.08
2023-02-23T15:36:59.841Z,19.52
2023-02-23T15:39:56.927Z,22.98
2023-02-23T15:42:28.869Z,24.05
2023-02-23T15:45:04.985Z,23.42
2023-02-23T15:47:38.511Z,25.40
2023-02-23T15:50:21.965Z,25.50
2023-02-23T15:53:01.453Z,23.25
2023-02-23T15:55:38.275Z,22.73
2023-02-23T15:58:22.937Z,22.17
2023-02-23T16:00:58.335Z,22.10
2023-02-23T16:03:37.108Z,21.90
2023-02-23T16:06:23.710Z,23.05
2023-02-23T16:09:05.869Z,21.52
2023-02-23T16:11:38.538Z,23.83
2023-02-23T16:14:16.219Z,27.98
2023-02-23T16:16:46.669Z,26.85
2023-02-23T16:19:17.409Z,24.90
2023-02-23T16:21:53.797Z,23.73
2023-02-23T16:24:25.464Z,24.63
2023-02-23T16:29:32.356Z,24.58
2023-02-23T16:32:03.612Z,32.90
2023-02-23T16:34:44.891Z,33.75
2023-02-23T16:37:17.754Z,34.50
2023-02-23T16:39:48.219Z,32.35
2023-02-23T16:42:35.365Z,29.77
2023-02-23T16:45:05.141Z,26.75
2023-02-23T16:47:41.467Z,24.48
2023-02-23T16:50:25.814Z,23.42
2023-02-23T16:52:55.349Z,23.42
2023-02-23T16:55:28.030Z,22.83
2023-02-23T16:58:02.213Z,22.33
2023-02-23T17:00:32.547Z,22.67
2023-02-23T17:03:05.645Z,22.55
2023-02-23T17:05:33.383Z,24.02
2023-02-23T17:08:02.986Z,23.52
2023-02-23T17:10:32.975Z,24.13
2023-02-23T17:13:07.312Z,22.60
2023-02-23T17:15:39.873Z,21.35
2023-02-23T17:18:07.578Z,22.40
2023-02-23T17:20:34.869Z,23.05
2023-02-23T17:23:02.750Z,24.23
2023-02-23T17:25:35.133Z,24.83
2023-02-23T17:28:03.203Z,24.48
2023-02-23T17:30:31.524Z,24.40
2023-02-23T17:32:59.609Z,25.08
2023-02-23T17:35:27.465Z,26.20
2023-02-23T17:37:54.948Z,28.00
2023-02-23T17:40:31.203Z,37.83
2023-02-23T17:43:05.223Z,37.80
2023-02-23T17:45:32.927Z,35.25
2023-02-23T17:48:00.271Z,30.13
2023-02-23T17:50:28.530Z,30.08
2023-02-23T17:52:56.787Z,28.70
2023-02-23T17:55:24.850Z,27.70
2023-02-23T17:57:52.148Z,25.77
2023-02-23T18:00:20.291Z,25.42
2023-02-23T18:02:47.682Z,25.02
2023-02-23T18:05:15.746Z,26.90
2023-02-23T18:07:43.183Z,25.92
2023-02-23T18:10:14.575Z,25.75
2023-02-23T18:12:42.018Z,24.50
2023-02-23T18:15:11.611Z,25.48
2023-02-23T18:17:38.879Z,24.15
2023-02-23T18:20:09.249Z,25.20
2023-02-23T18:22:39.286Z,26.52
2023-02-23T18:25:19.711Z,23.70
2023-02-23T18:27:50.497Z,23.98
2023-02-23T18:30:17.808Z,24.35
2023-02-23T18:32:47.248Z,25.20
2023-02-23T18:35:14.889Z,26.42
2023-02-23T18:37:44.698Z,27.65
2023-02-23T18:40:21.268Z,27.63
2023-02-23T18:42:51.035Z,26.80
2023-02-23T18:45:18.406Z,26.65
2023-02-23T18:47:45.649Z,25.85
2023-02-23T18:50:19.024Z,26.80
2023-02-23T18:52:53.050Z,27.52
2023-02-23T18:55:22.242Z,27.67
2023-02-23T18:57:50.895Z,26.75
2023-02-23T19:00:19.373Z,25.70
2023-02-23T19:02:49.252Z,26.92
2023-02-23T19:05:20.124Z,27.55
2023-02-23T19:10:17.844Z,25.48
2023-02-23T19:12:45.144Z,25.48
2023-02-23T19:15:13.034Z,27.38
2023-02-23T19:17:42.824Z,27.20
2023-02-23T19:20:15.791Z,26.90
2023-02-23T19:22:46.024Z,26.95
2023-02-23T19:25:14.552Z,28.48
2023-02-23T19:27:42.277Z,28.35
2023-02-23T19:30:10.556Z,27.67
2023-02-23T19:32:39.770Z,27.65
2023-02-23T19:35:10.831Z,28.80
2023-02-23T19:37:40.003Z,30.98
2023-02-23T19:40:10.228Z,29.10
2023-02-23T19:42:43.017Z,27.08
2023-02-23T19:45:10.563Z,28.20
2023-02-23T19:47:40.690Z,28.67
2023-02-23T19:50:16.256Z,28.88
2023-02-23T19:52:50.132Z,25.92
2023-02-23T19:55:20.522Z,26.85
2023-02-23T19:57:50.151Z,27.60
2023-02-23T20:00:21.580Z,25.95
2023-02-23T20:02:54.846Z,26.65
2023-02-23T20:05:23.912Z,26.98
2023-02-23T20:07:51.802Z,26.75
2023-02-23T20:10:25.533Z,25.55
2023-02-23T20:12:53.410Z,25.30
2023-02-23T20:15:21.011Z,25.85
2023-02-23T20:17:48.592Z,26.60
2023-02-23T20:20:15.877Z,25.35
2023-02-23T20:22:45.009Z,25.63
2023-02-23T20:25:15.683Z,26.02
2023-02-23T20:27:44.228Z,25.20
2023-02-23T20:30:13.254Z,25.85
2023-02-23T20:32:43.230Z,26.35
2023-02-23T20:35:14.318Z,25.05
2023-02-23T20:37:41.741Z,26.00
2023-02-23T20:40:17.298Z,24.45
2023-02-23T20:42:48.453Z,25.65
2023-02-23T20:45:21.350Z,26.67
2023-02-23T20:47:53.181Z,30.55
2023-02-23T20:50:22.701Z,26.90
2023-02-23T20:52:50.241Z,26.23
2023-02-23T20:55:18.771Z,25.48
2023-02-23T20:57:47.989Z,27.60
2023-02-23T21:00:31.871Z,25.58
2023-02-23T21:03:01.205Z,26.15
2023-02-23T21:05:37.514Z,26.67
2023-02-23T21:08:08.870Z,25.70
2023-02-23T21:10:39.427Z,28.07
2023-02-23T21:13:10.746Z,27.70
2023-02-23T21:15:40.472Z,27.33
2023-02-23T21:18:08.285Z,26.52
2023-02-23T21:20:37.905Z,27.40
2023-02-23T21:23:08.013Z,27.17
2023-02-23T21:25:38.024Z,26.10
2023-02-23T21:28:05.270Z,26.83
2023-02-23T21:30:35.056Z,26.10
2023-02-23T21:33:03.796Z,26.23
2023-02-23T21:35:31.181Z,27.67
2023-02-23T21:38:01.316Z,26.00
2023-02-23T21:40:28.655Z,25.23
2023-02-23T21:42:56.015Z,26.40
2023-02-23T21:45:23.236Z,26.92
2023-02-23T21:47:54.853Z,26.50
2023-02-23T21:52:54.295Z,25.73
2023-02-23T21:55:22.457Z,26.33
2023-02-23T21:57:51.353Z,25.85
2023-02-23T22:00:19.119Z,26.67
2023-02-23T22:02:47.010Z,25.90
2023-02-23T22:05:18.827Z,26.38
2023-02-23T22:07:52.065Z,26.55
2023-02-23T22:10:23.870Z,25.88
2023-02-23T22:12:56.327Z,26.35
2023-02-23T22:15:27.686Z,25.77
2023-02-23T22:17:56.113Z,25.95
2023-02-23T22:20:23.670Z,25.70
2023-02-23T22:22:50.920Z,27.05
2023-02-23T22:25:19.849Z,26.38
2023-02-23T22:27:47.609Z,26.05
2023-02-23T22:30:15.454Z,25.35
2023-02-23T22:32:43.569Z,26.52
2023-02-23T22:35:13.623Z,25.58
2023-02-23T22:37:41.063Z,25.95
2023-02-23T22:40:13.599Z,25.67
2023-02-23T22:42:43.399Z,26.70
2023-02-23T22:45:11.538Z,25.95
2023-02-23T22:47:41.137Z,25.20
2023-02-23T22:50:19.316Z,25.95
2023-02-23T22:52:49.147Z,25.17
2023-02-23T22:55:16.474Z,24.63
2023-02-23T22:57:47.657Z,23.60
2023-02-23T23:00:19.139Z,25.30
2023-02-23T23:02:46.372Z,24.92
2023-02-23T23:05:18.945Z,25.25
2023-02-23T23:07:49.247Z,24.65
2023-02-23T23:10:17.859Z,24.90
2023-02-23T23:12:48.785Z,24.75
2023-02-23T23:15:19.941Z,24.08
2023-02-23T23:17:50.376Z,25.63
2023-02-23T23:20:25.651Z,25.45
2023-02-23T23:22:53.595Z,25.08
2023-02-23T23:25:23.119Z,25.08
2023-02-23T23:27:54.331Z,25.48
2023-02-23T23:30:21.750Z,26.50
2023-02-23T23:32:49.250Z,24.98
2023-02-23T23:35:20.648Z,25.75
2023-02-23T23:37:51.690Z,24.50
2023-02-23T23:40:24.310Z,24.50
2023-02-23T23:42:52.610Z,25.02
2023-02-23T23:45:24.340Z,24.25
2023-02-23T23:47:54.370Z,24.38
2023-02-23T23:50:26.616Z,24.55
2023-02-23T23:52:54.515Z,23.08
2023-02-23T23:55:22.348Z,22.20
2023-02-23T23:57:52.159Z,23.88
